sensor_id;sensor_type;location;lat;lon;timestamp;P1;durP1;ratioP1;P2;durP2;ratioP2
30888;SDS011;51092;50.874;7.024;2023-05-19T00:00:26;14.13;;;5.90;;
30888;SDS011;51092;50.874;7.024;2023-05-19T00:01:30;15.73;;;7.35;;
30888;SDS011;51092;50.874;7.024;2023-05-19T00:02:32;13.73;;;5.95;;
30888;SDS011;51092;50.874;7.024;2023-05-19T00:03:35;13.70;;;6.13;;
30888;SDS011;51092;50.874;7.024;2023-05-19T00:04:41;10.27;;;6.88;;
30888;SDS011;51092;50.874;7.024;2023-05-19T00:05:43;11.60;;;6.55;;
30888;SDS011;51092;50.874;7.024;2023-05-19T00:06:45;11.90;;;5.45;;
30888;SDS011;51092;50.874;7.024;2023-05-19T00:07:51;13.32;;;6.18;;
30888;SDS011;51092;50.874;7.024;2023-05-19T00:08:55;8.60;;;5.20;;
30888;SDS011;51092;50.874;7.024;2023-05-19T00:09:59;11.60;;;5.60;;
30888;SDS011;51092;50.874;7.024;2023-05-19T00:11:01;13.25;;;5.22;;
30888;SDS011;51092;50.874;7.024;2023-05-19T00:12:04;9.52;;;5.60;;
30888;SDS011;51092;50.874;7.024;2023-05-19T00:13:07;9.88;;;4.68;;
30888;SDS011;51092;50.874;7.024;2023-05-19T00:14:10;7.13;;;4.10;;
30888;SDS011;51092;50.874;7.024;2023-05-19T00:15:12;10.00;;;5.63;;
30888;SDS011;51092;50.874;7.024;2023-05-19T00:16:15;8.60;;;4.43;;
30888;SDS011;51092;50.874;7.024;2023-05-19T00:17:17;14.80;;;4.80;;
30888;SDS011;51092;50.874;7.024;2023-05-19T00:18:20;11.30;;;5.05;;
30888;SDS011;51092;50.874;7.024;2023-05-19T00:19:23;9.85;;;5.25;;
30888;SDS011;51092;50.874;7.024;2023-05-19T00:20:27;6.85;;;4.63;;
30888;SDS011;51092;50.874;7.024;2023-05-19T00:21:29;11.50;;;5.55;;
30888;SDS011;51092;50.874;7.024;2023-05-19T00:22:32;13.60;;;7.32;;
30888;SDS011;51092;50.874;7.024;2023-05-19T00:23:34;11.32;;;6.22;;
30888;SDS011;51092;50.874;7.024;2023-05-19T00:24:36;11.90;;;5.65;;
30888;SDS011;51092;50.874;7.024;2023-05-19T00:25:38;14.45;;;6.55;;
30888;SDS011;51092;50.874;7.024;2023-05-19T00:26:40;11.57;;;5.50;;
30888;SDS011;51092;50.874;7.024;2023-05-19T00:27:42;10.50;;;5.93;;
30888;SDS011;51092;50.874;7.024;2023-05-19T00:28:44;12.20;;;7.30;;
30888;SDS011;51092;50.874;7.024;2023-05-19T00:29:46;9.45;;;6.40;;
30888;SDS011;51092;50.874;7.024;2023-05-19T00:30:49;9.75;;;5.60;;
30888;SDS011;51092;50.874;7.024;2023-05-19T00:31:51;9.80;;;5.25;;
30888;SDS011;51092;50.874;7.024;2023-05-19T00:32:53;9.38;;;6.35;;
30888;SDS011;51092;50.874;7.024;2023-05-19T00:33:55;12.77;;;6.60;;
30888;SDS011;51092;50.874;7.024;2023-05-19T00:34:58;10.50;;;6.38;;
30888;SDS011;51092;50.874;7.024;2023-05-19T00:36:01;10.82;;;5.80;;
30888;SDS011;51092;50.874;7.024;2023-05-19T00:37:04;7.85;;;5.60;;
30888;SDS011;51092;50.874;7.024;2023-05-19T00:38:05;13.98;;;6.13;;
30888;SDS011;51092;50.874;7.024;2023-05-19T00:39:08;11.00;;;6.22;;
30888;SDS011;51092;50.874;7.024;2023-05-19T00:40:10;12.73;;;7.13;;
30888;SDS011;51092;50.874;7.024;2023-05-19T00:41:13;12.23;;;5.68;;
30888;SDS011;51092;50.874;7.024;2023-05-19T00:42:14;12.07;;;5.82;;
30888;SDS011;51092;50.874;7.024;2023-05-19T00:43:17;9.60;;;6.15;;
30888;SDS011;51092;50.874;7.024;2023-05-19T00:44:19;9.65;;;5.97;;
30888;SDS011;51092;50.874;7.024;2023-05-19T00:45:21;12.23;;;6.43;;
30888;SDS011;51092;50.874;7.024;2023-05-19T00:46:24;12.45;;;5.63;;
30888;SDS011;51092;50.874;7.024;2023-05-19T00:47:26;11.10;;;6.18;;
30888;SDS011;51092;50.874;7.024;2023-05-19T00:48:28;9.05;;;5.50;;
30888;SDS011;51092;50.874;7.024;2023-05-19T00:49:31;13.23;;;6.05;;
30888;SDS011;51092;50.874;7.024;2023-05-19T00:50:35;11.93;;;5.75;;
30888;SDS011;51092;50.874;7.024;2023-05-19T00:51:39;10.50;;;6.78;;
30888;SDS011;51092;50.874;7.024;2023-05-19T00:52:40;11.93;;;5.65;;
30888;SDS011;51092;50.874;7.024;2023-05-19T00:53:43;9.70;;;5.22;;
30888;SDS011;51092;50.874;7.024;2023-05-19T00:54:48;9.07;;;5.15;;
30888;SDS011;51092;50.874;7.024;2023-05-19T00:55:52;15.23;;;6.40;;
30888;SDS011;51092;50.874;7.024;2023-05-19T00:56:54;12.25;;;5.95;;
30888;SDS011;51092;50.874;7.024;2023-05-19T00:57:58;11.95;;;6.68;;
30888;SDS011;51092;50.874;7.024;2023-05-19T00:59:00;15.55;;;6.45;;
30888;SDS011;51092;50.874;7.024;2023-05-19T01:00:03;14.77;;;6.28;;
30888;SDS011;51092;50.874;7.024;2023-05-19T01:01:06;11.90;;;8.32;;
30888;SDS011;51092;50.874;7.024;2023-05-19T01:02:08;10.52;;;5.97;;
30888;SDS011;51092;50.874;7.024;2023-05-19T01:03:09;8.35;;;5.93;;
30888;SDS011;51092;50.874;7.024;2023-05-19T01:04:12;11.55;;;5.75;;
30888;SDS011;51092;50.874;7.024;2023-05-19T01:05:16;9.52;;;5.47;;
30888;SDS011;51092;50.874;7.024;2023-05-19T01:06:19;11.93;;;6.10;;
30888;SDS011;51092;50.874;7.024;2023-05-19T01:07:23;9.68;;;6.03;;
30888;SDS011;51092;50.874;7.024;2023-05-19T01:08:27;13.27;;;6.35;;
30888;SDS011;51092;50.874;7.024;2023-05-19T01:09:29;8.88;;;6.88;;
30888;SDS011;51092;50.874;7.024;2023-05-19T01:10:31;13.70;;;6.00;;
30888;SDS011;51092;50.874;7.024;2023-05-19T01:11:33;8.55;;;7.22;;
30888;SDS011;51092;50.874;7.024;2023-05-19T01:12:36;11.45;;;6.40;;
30888;SDS011;51092;50.874;7.024;2023-05-19T01:13:38;8.73;;;5.90;;
30888;SDS011;51092;50.874;7.024;2023-05-19T01:14:40;11.68;;;6.03;;
30888;SDS011;51092;50.874;7.024;2023-05-19T01:15:45;11.40;;;6.65;;
30888;SDS011;51092;50.874;7.024;2023-05-19T01:17:06;12.25;;;6.05;;
30888;SDS011;51092;50.874;7.024;2023-05-19T01:18:14;14.00;;;6.55;;
30888;SDS011;51092;50.874;7.024;2023-05-19T01:19:30;11.77;;;6.45;;
30888;SDS011;51092;50.874;7.024;2023-05-19T01:20:43;11.68;;;6.97;;
30888;SDS011;51092;50.874;7.024;2023-05-19T01:23:26;11.10;;;6.13;;
30888;SDS011;51092;50.874;7.024;2023-05-19T01:24:42;13.43;;;6.10;;
30888;SDS011;51092;50.874;7.024;2023-05-19T01:26:03;11.90;;;6.03;;
30888;SDS011;51092;50.874;7.024;2023-05-19T01:27:28;12.18;;;7.00;;
30888;SDS011;51092;50.874;7.024;2023-05-19T01:29:11;12.98;;;7.07;;
30888;SDS011;51092;50.874;7.024;2023-05-19T01:30:30;12.55;;;6.90;;
30888;SDS011;51092;50.874;7.024;2023-05-19T01:31:35;12.77;;;6.32;;
30888;SDS011;51092;50.874;7.024;2023-05-19T01:32:38;10.65;;;6.82;;
30888;SDS011;51092;50.874;7.024;2023-05-19T01:33:41;11.95;;;6.93;;
30888;SDS011;51092;50.874;7.024;2023-05-19T01:34:45;15.35;;;7.47;;
30888;SDS011;51092;50.874;7.024;2023-05-19T01:35:48;10.18;;;6.15;;
30888;SDS011;51092;50.874;7.024;2023-05-19T01:36:51;10.95;;;6.20;;
30888;SDS011;51092;50.874;7.024;2023-05-19T01:37:56;9.30;;;6.93;;
30888;SDS011;51092;50.874;7.024;2023-05-19T01:39:00;10.50;;;6.30;;
30888;SDS011;51092;50.874;7.024;2023-05-19T01:40:02;11.65;;;7.30;;
30888;SDS011;51092;50.874;7.024;2023-05-19T01:41:06;17.42;;;8.27;;
30888;SDS011;51092;50.874;7.024;2023-05-19T01:42:08;12.50;;;7.97;;
30888;SDS011;51092;50.874;7.024;2023-05-19T01:43:12;10.75;;;6.68;;
30888;SDS011;51092;50.874;7.024;2023-05-19T01:44:15;9.32;;;6.85;;
30888;SDS011;51092;50.874;7.024;2023-05-19T01:45:18;9.38;;;6.40;;
30888;SDS011;51092;50.874;7.024;2023-05-19T01:46:22;16.00;;;7.15;;
30888;SDS011;51092;50.874;7.024;2023-05-19T01:47:25;15.20;;;7.43;;
30888;SDS011;51092;50.874;7.024;2023-05-19T01:48:26;14.43;;;7.40;;
30888;SDS011;51092;50.874;7.024;2023-05-19T01:49:29;11.88;;;7.68;;
30888;SDS011;51092;50.874;7.024;2023-05-19T01:50:30;13.40;;;6.55;;
30888;SDS011;51092;50.874;7.024;2023-05-19T01:51:33;10.98;;;6.85;;
30888;SDS011;51092;50.874;7.024;2023-05-19T01:52:35;7.47;;;6.20;;
30888;SDS011;51092;50.874;7.024;2023-05-19T01:53:38;11.13;;;7.97;;
30888;SDS011;51092;50.874;7.024;2023-05-19T01:54:39;13.57;;;6.72;;
30888;SDS011;51092;50.874;7.024;2023-05-19T01:55:43;12.63;;;7.18;;
30888;SDS011;51092;50.874;7.024;2023-05-19T01:56:49;21.50;;;8.48;;
30888;SDS011;51092;50.874;7.024;2023-05-19T01:58:03;13.15;;;8.25;;
30888;SDS011;51092;50.874;7.024;2023-05-19T01:59:14;7.38;;;4.90;;
30888;SDS011;51092;50.874;7.024;2023-05-19T02:00:26;13.52;;;6.90;;
30888;SDS011;51092;50.874;7.024;2023-05-19T02:01:37;14.73;;;8.02;;
30888;SDS011;51092;50.874;7.024;2023-05-19T02:02:52;15.80;;;7.70;;
30888;SDS011;51092;50.874;7.024;2023-05-19T02:04:00;11.48;;;7.13;;
30888;SDS011;51092;50.874;7.024;2023-05-19T02:05:15;11.82;;;7.50;;
30888;SDS011;51092;50.874;7.024;2023-05-19T02:06:29;10.63;;;6.35;;
30888;SDS011;51092;50.874;7.024;2023-05-19T02:07:40;10.70;;;6.97;;
30888;SDS011;51092;50.874;7.024;2023-05-19T02:08:48;16.13;;;8.10;;
30888;SDS011;51092;50.874;7.024;2023-05-19T02:09:59;15.00;;;8.27;;
30888;SDS011;51092;50.874;7.024;2023-05-19T02:11:06;11.02;;;7.85;;
30888;SDS011;51092;50.874;7.024;2023-05-19T02:12:15;14.80;;;7.30;;
30888;SDS011;51092;50.874;7.024;2023-05-19T02:13:23;13.50;;;7.40;;
30888;SDS011;51092;50.874;7.024;2023-05-19T02:14:32;11.48;;;6.95;;
30888;SDS011;51092;50.874;7.024;2023-05-19T02:15:40;12.88;;;7.93;;
30888;SDS011;51092;50.874;7.024;2023-05-19T02:16:46;12.65;;;7.47;;
30888;SDS011;51092;50.874;7.024;2023-05-19T02:17:49;11.43;;;7.28;;
30888;SDS011;51092;50.874;7.024;2023-05-19T02:18:54;11.77;;;7.70;;
30888;SDS011;51092;50.874;7.024;2023-05-19T02:19:58;10.57;;;6.82;;
30888;SDS011;51092;50.874;7.024;2023-05-19T02:21:00;14.52;;;8.20;;
30888;SDS011;51092;50.874;7.024;2023-05-19T02:22:03;9.32;;;7.82;;
30888;SDS011;51092;50.874;7.024;2023-05-19T02:23:05;10.05;;;7.68;;
30888;SDS011;51092;50.874;7.024;2023-05-19T02:24:08;20.80;;;8.35;;
30888;SDS011;51092;50.874;7.024;2023-05-19T02:25:10;13.52;;;7.47;;
30888;SDS011;51092;50.874;7.024;2023-05-19T02:26:12;13.18;;;8.38;;
30888;SDS011;51092;50.874;7.024;2023-05-19T02:27:14;19.20;;;8.43;;
30888;SDS011;51092;50.874;7.024;2023-05-19T02:28:16;14.10;;;7.80;;
30888;SDS011;51092;50.874;7.024;2023-05-19T02:29:18;16.02;;;7.20;;
30888;SDS011;51092;50.874;7.024;2023-05-19T02:30:21;19.85;;;8.57;;
30888;SDS011;51092;50.874;7.024;2023-05-19T02:31:23;14.35;;;7.28;;
30888;SDS011;51092;50.874;7.024;2023-05-19T02:32:27;12.98;;;7.35;;
30888;SDS011;51092;50.874;7.024;2023-05-19T02:33:28;13.70;;;8.32;;
30888;SDS011;51092;50.874;7.024;2023-05-19T02:34:31;13.10;;;8.15;;
30888;SDS011;51092;50.874;7.024;2023-05-19T02:35:32;13.23;;;7.95;;
30888;SDS011;51092;50.874;7.024;2023-05-19T02:36:35;11.75;;;7.90;;
30888;SDS011;51092;50.874;7.024;2023-05-19T02:37:38;11.52;;;7.63;;
30888;SDS011;51092;50.874;7.024;2023-05-19T02:38:41;10.35;;;7.38;;
30888;SDS011;51092;50.874;7.024;2023-05-19T02:39:42;11.85;;;7.10;;
30888;SDS011;51092;50.874;7.024;2023-05-19T02:40:45;12.27;;;6.45;;
30888;SDS011;51092;50.874;7.024;2023-05-19T02:41:47;10.98;;;6.75;;
30888;SDS011;51092;50.874;7.024;2023-05-19T02:42:49;10.65;;;6.15;;
30888;SDS011;51092;50.874;7.024;2023-05-19T02:43:51;11.68;;;6.93;;
30888;SDS011;51092;50.874;7.024;2023-05-19T02:44:54;12.90;;;7.60;;
30888;SDS011;51092;50.874;7.024;2023-05-19T02:45:55;15.05;;;9.02;;
30888;SDS011;51092;50.874;7.024;2023-05-19T02:46:58;13.98;;;7.35;;
30888;SDS011;51092;50.874;7.024;2023-05-19T02:48:01;18.13;;;8.25;;
30888;SDS011;51092;50.874;7.024;2023-05-19T02:49:03;13.07;;;7.75;;
30888;SDS011;51092;50.874;7.024;2023-05-19T02:50:06;15.93;;;7.97;;
30888;SDS011;51092;50.874;7.024;2023-05-19T02:51:09;13.27;;;7.28;;
30888;SDS011;51092;50.874;7.024;2023-05-19T02:52:11;13.90;;;7.65;;
30888;SDS011;51092;50.874;7.024;2023-05-19T02:53:13;12.85;;;8.38;;
30888;SDS011;51092;50.874;7.024;2023-05-19T02:54:15;12.25;;;7.00;;
30888;SDS011;51092;50.874;7.024;2023-05-19T02:55:17;17.95;;;8.45;;
30888;SDS011;51092;50.874;7.024;2023-05-19T02:56:19;18.92;;;7.72;;
30888;SDS011;51092;50.874;7.024;2023-05-19T02:57:22;11.77;;;7.90;;
30888;SDS011;51092;50.874;7.024;2023-05-19T02:58:23;11.52;;;7.43;;
30888;SDS011;51092;50.874;7.024;2023-05-19T02:59:26;12.65;;;8.10;;
30888;SDS011;51092;50.874;7.024;2023-05-19T03:00:27;12.02;;;7.40;;
30888;SDS011;51092;50.874;7.024;2023-05-19T03:01:31;10.35;;;6.40;;
30888;SDS011;51092;50.874;7.024;2023-05-19T03:02:32;9.25;;;7.20;;
30888;SDS011;51092;50.874;7.024;2023-05-19T03:03:36;14.48;;;7.88;;
30888;SDS011;51092;50.874;7.024;2023-05-19T03:04:37;19.80;;;7.65;;
30888;SDS011;51092;50.874;7.024;2023-05-19T03:05:42;12.48;;;7.57;;
30888;SDS011;51092;50.874;7.024;2023-05-19T03:06:44;12.77;;;8.23;;
30888;SDS011;51092;50.874;7.024;2023-05-19T03:07:46;16.35;;;7.55;;
30888;SDS011;51092;50.874;7.024;2023-05-19T03:08:49;10.00;;;6.85;;
30888;SDS011;51092;50.874;7.024;2023-05-19T03:09:51;12.27;;;7.30;;
30888;SDS011;51092;50.874;7.024;2023-05-19T03:10:54;15.07;;;8.32;;
30888;SDS011;51092;50.874;7.024;2023-05-19T03:11:55;13.32;;;7.10;;
30888;SDS011;51092;50.874;7.024;2023-05-19T03:13:03;10.82;;;8.07;;
30888;SDS011;51092;50.874;7.024;2023-05-19T03:14:05;17.02;;;8.73;;
30888;SDS011;51092;50.874;7.024;2023-05-19T03:15:09;13.60;;;7.57;;
30888;SDS011;51092;50.874;7.024;2023-05-19T03:16:12;15.70;;;7.70;;
30888;SDS011;51092;50.874;7.024;2023-05-19T03:17:15;9.77;;;7.47;;
30888;SDS011;51092;50.874;7.024;2023-05-19T03:18:17;16.25;;;7.65;;
30888;SDS011;51092;50.874;7.024;2023-05-19T03:19:20;11.27;;;7.05;;
30888;SDS011;51092;50.874;7.024;2023-05-19T03:20:22;9.40;;;7.47;;
30888;SDS011;51092;50.874;7.024;2023-05-19T03:21:25;16.00;;;7.70;;
30888;SDS011;51092;50.874;7.024;2023-05-19T03:22:26;12.70;;;7.97;;
30888;SDS011;51092;50.874;7.024;2023-05-19T03:23:29;11.30;;;7.13;;
30888;SDS011;51092;50.874;7.024;2023-05-19T03:24:31;13.07;;;7.18;;
30888;SDS011;51092;50.874;7.024;2023-05-19T03:25:33;12.18;;;7.25;;
30888;SDS011;51092;50.874;7.024;2023-05-19T03:26:35;18.17;;;10.32;;
30888;SDS011;51092;50.874;7.024;2023-05-19T03:27:37;15.35;;;8.93;;
30888;SDS011;51092;50.874;7.024;2023-05-19T03:28:39;10.70;;;8.00;;
30888;SDS011;51092;50.874;7.024;2023-05-19T03:29:41;13.77;;;7.28;;
30888;SDS011;51092;50.874;7.024;2023-05-19T03:30:46;15.15;;;8.98;;
30888;SDS011;51092;50.874;7.024;2023-05-19T03:31:50;14.95;;;8.10;;
30888;SDS011;51092;50.874;7.024;2023-05-19T03:32:51;12.45;;;7.57;;
30888;SDS011;51092;50.874;7.024;2023-05-19T03:33:53;10.50;;;7.72;;
30888;SDS011;51092;50.874;7.024;2023-05-19T03:34:55;11.10;;;7.43;;
30888;SDS011;51092;50.874;7.024;2023-05-19T03:35:57;13.75;;;8.48;;
30888;SDS011;51092;50.874;7.024;2023-05-19T03:36:59;14.52;;;8.82;;
30888;SDS011;51092;50.874;7.024;2023-05-19T03:38:01;13.18;;;7.82;;
30888;SDS011;51092;50.874;7.024;2023-05-19T03:39:02;13.90;;;7.63;;
30888;SDS011;51092;50.874;7.024;2023-05-19T03:40:05;13.70;;;8.65;;
30888;SDS011;51092;50.874;7.024;2023-05-19T03:41:07;14.18;;;8.52;;
30888;SDS011;51092;50.874;7.024;2023-05-19T03:42:10;13.13;;;8.30;;
30888;SDS011;51092;50.874;7.024;2023-05-19T03:43:11;13.43;;;7.53;;
30888;SDS011;51092;50.874;7.024;2023-05-19T03:44:15;12.23;;;7.78;;
30888;SDS011;51092;50.874;7.024;2023-05-19T03:45:17;13.60;;;8.82;;
30888;SDS011;51092;50.874;7.024;2023-05-19T03:46:19;9.55;;;7.32;;
30888;SDS011;51092;50.874;7.024;2023-05-19T03:47:21;20.08;;;9.57;;
30888;SDS011;51092;50.874;7.024;2023-05-19T03:48:25;12.32;;;9.05;;
30888;SDS011;51092;50.874;7.024;2023-05-19T03:49:27;12.73;;;9.10;;
30888;SDS011;51092;50.874;7.024;2023-05-19T03:50:31;10.77;;;7.30;;
30888;SDS011;51092;50.874;7.024;2023-05-19T03:51:33;16.42;;;9.07;;
30888;SDS011;51092;50.874;7.024;2023-05-19T03:52:35;10.27;;;6.97;;
30888;SDS011;51092;50.874;7.024;2023-05-19T03:53:37;10.52;;;7.28;;
30888;SDS011;51092;50.874;7.024;2023-05-19T03:54:40;13.18;;;7.30;;
30888;SDS011;51092;50.874;7.024;2023-05-19T03:55:42;18.95;;;7.32;;
30888;SDS011;51092;50.874;7.024;2023-05-19T03:56:46;12.82;;;7.25;;
30888;SDS011;51092;50.874;7.024;2023-05-19T03:57:47;10.85;;;7.15;;
30888;SDS011;51092;50.874;7.024;2023-05-19T03:58:50;11.73;;;7.88;;
30888;SDS011;51092;50.874;7.024;2023-05-19T03:59:51;14.20;;;7.45;;
30888;SDS011;51092;50.874;7.024;2023-05-19T04:00:54;13.23;;;6.40;;
30888;SDS011;51092;50.874;7.024;2023-05-19T04:01:56;11.50;;;6.88;;
30888;SDS011;51092;50.874;7.024;2023-05-19T04:02:58;11.45;;;7.20;;
30888;SDS011;51092;50.874;7.024;2023-05-19T04:04:01;10.95;;;6.65;;
30888;SDS011;51092;50.874;7.024;2023-05-19T04:05:04;11.07;;;7.80;;
30888;SDS011;51092;50.874;7.024;2023-05-19T04:06:08;11.80;;;7.60;;
30888;SDS011;51092;50.874;7.024;2023-05-19T04:07:10;12.68;;;7.57;;
30888;SDS011;51092;50.874;7.024;2023-05-19T04:08:12;12.93;;;8.38;;
30888;SDS011;51092;50.874;7.024;2023-05-19T04:09:15;13.85;;;6.65;;
30888;SDS011;51092;50.874;7.024;2023-05-19T04:10:16;15.05;;;7.88;;
30888;SDS011;51092;50.874;7.024;2023-05-19T04:11:20;12.27;;;7.03;;
30888;SDS011;51092;50.874;7.024;2023-05-19T04:12:21;12.90;;;7.03;;
30888;SDS011;51092;50.874;7.024;2023-05-19T04:13:24;16.60;;;7.72;;
30888;SDS011;51092;50.874;7.024;2023-05-19T04:14:26;10.52;;;7.47;;
30888;SDS011;51092;50.874;7.024;2023-05-19T04:15:28;14.48;;;8.32;;
30888;SDS011;51092;50.874;7.024;2023-05-19T04:16:30;13.13;;;9.38;;
30888;SDS011;51092;50.874;7.024;2023-05-19T04:17:32;12.50;;;8.07;;
30888;SDS011;51092;50.874;7.024;2023-05-19T04:18:34;11.48;;;8.18;;
30888;SDS011;51092;50.874;7.024;2023-05-19T04:19:37;13.18;;;7.72;;
30888;SDS011;51092;50.874;7.024;2023-05-19T04:20:38;17.17;;;8.93;;
30888;SDS011;51092;50.874;7.024;2023-05-19T04:21:42;21.20;;;10.95;;
30888;SDS011;51092;50.874;7.024;2023-05-19T04:22:44;14.80;;;9.95;;
30888;SDS011;51092;50.874;7.024;2023-05-19T04:23:46;10.68;;;8.77;;
30888;SDS011;51092;50.874;7.024;2023-05-19T04:24:48;12.77;;;8.73;;
30888;SDS011;51092;50.874;7.024;2023-05-19T04:25:52;10.77;;;8.38;;
30888;SDS011;51092;50.874;7.024;2023-05-19T04:26:54;13.68;;;7.53;;
30888;SDS011;51092;50.874;7.024;2023-05-19T04:28:02;11.07;;;7.70;;
30888;SDS011;51092;50.874;7.024;2023-05-19T04:29:03;11.00;;;8.15;;
30888;SDS011;51092;50.874;7.024;2023-05-19T04:30:06;12.70;;;7.18;;
30888;SDS011;51092;50.874;7.024;2023-05-19T04:31:09;19.60;;;8.32;;
30888;SDS011;51092;50.874;7.024;2023-05-19T04:32:12;12.00;;;8.05;;
30888;SDS011;51092;50.874;7.024;2023-05-19T04:33:17;13.60;;;8.75;;
30888;SDS011;51092;50.874;7.024;2023-05-19T04:34:19;12.88;;;8.40;;
30888;SDS011;51092;50.874;7.024;2023-05-19T04:35:21;14.63;;;8.35;;
30888;SDS011;51092;50.874;7.024;2023-05-19T04:36:24;12.85;;;9.05;;
30888;SDS011;51092;50.874;7.024;2023-05-19T04:37:26;16.23;;;8.73;;
30888;SDS011;51092;50.874;7.024;2023-05-19T04:38:29;18.58;;;10.00;;
30888;SDS011;51092;50.874;7.024;2023-05-19T04:39:30;16.17;;;8.75;;
30888;SDS011;51092;50.874;7.024;2023-05-19T04:40:31;14.52;;;8.25;;
30888;SDS011;51092;50.874;7.024;2023-05-19T04:41:34;13.45;;;8.18;;
30888;SDS011;51092;50.874;7.024;2023-05-19T04:42:40;11.00;;;7.93;;
30888;SDS011;51092;50.874;7.024;2023-05-19T04:43:42;16.45;;;9.95;;
30888;SDS011;51092;50.874;7.024;2023-05-19T04:44:45;13.88;;;7.88;;
30888;SDS011;51092;50.874;7.024;2023-05-19T04:45:48;13.75;;;8.13;;
30888;SDS011;51092;50.874;7.024;2023-05-19T04:46:51;12.18;;;7.60;;
30888;SDS011;51092;50.874;7.024;2023-05-19T04:47:53;18.60;;;9.05;;
30888;SDS011;51092;50.874;7.024;2023-05-19T04:48:57;12.95;;;8.10;;
30888;SDS011;51092;50.874;7.024;2023-05-19T04:50:00;13.10;;;8.30;;
30888;SDS011;51092;50.874;7.024;2023-05-19T04:51:04;14.05;;;9.02;;
30888;SDS011;51092;50.874;7.024;2023-05-19T04:52:06;9.82;;;7.53;;
30888;SDS011;51092;50.874;7.024;2023-05-19T04:53:11;10.27;;;7.82;;
30888;SDS011;51092;50.874;7.024;2023-05-19T04:54:13;13.20;;;8.32;;
30888;SDS011;51092;50.874;7.024;2023-05-19T04:55:16;17.63;;;9.93;;
30888;SDS011;51092;50.874;7.024;2023-05-19T04:56:17;7.82;;;7.13;;
30888;SDS011;51092;50.874;7.024;2023-05-19T04:57:19;9.98;;;8.10;;
30888;SDS011;51092;50.874;7.024;2023-05-19T04:58:20;12.00;;;9.13;;
30888;SDS011;51092;50.874;7.024;2023-05-19T04:59:24;14.05;;;8.68;;
30888;SDS011;51092;50.874;7.024;2023-05-19T05:00:25;11.52;;;7.53;;
30888;SDS011;51092;50.874;7.024;2023-05-19T05:01:29;10.45;;;8.35;;
30888;SDS011;51092;50.874;7.024;2023-05-19T05:02:33;10.52;;;8.32;;
30888;SDS011;51092;50.874;7.024;2023-05-19T05:03:36;11.30;;;8.93;;
30888;SDS011;51092;50.874;7.024;2023-05-19T05:04:37;13.73;;;9.77;;
30888;SDS011;51092;50.874;7.024;2023-05-19T05:05:42;11.02;;;8.40;;
30888;SDS011;51092;50.874;7.024;2023-05-19T05:06:43;10.95;;;7.75;;
30888;SDS011;51092;50.874;7.024;2023-05-19T05:07:47;19.50;;;7.68;;
30888;SDS011;51092;50.874;7.024;2023-05-19T05:08:50;11.73;;;8.98;;
30888;SDS011;51092;50.874;7.024;2023-05-19T05:09:53;14.88;;;9.20;;
30888;SDS011;51092;50.874;7.024;2023-05-19T05:10:55;12.05;;;7.97;;
30888;SDS011;51092;50.874;7.024;2023-05-19T05:12:06;15.55;;;9.98;;
30888;SDS011;51092;50.874;7.024;2023-05-19T05:13:09;13.82;;;8.82;;
30888;SDS011;51092;50.874;7.024;2023-05-19T05:14:12;11.45;;;9.07;;
30888;SDS011;51092;50.874;7.024;2023-05-19T05:15:14;11.35;;;7.68;;
30888;SDS011;51092;50.874;7.024;2023-05-19T05:16:17;15.00;;;8.98;;
30888;SDS011;51092;50.874;7.024;2023-05-19T05:17:20;14.10;;;8.63;;
30888;SDS011;51092;50.874;7.024;2023-05-19T05:18:23;12.57;;;8.20;;
30888;SDS011;51092;50.874;7.024;2023-05-19T05:19:25;11.85;;;8.32;;
30888;SDS011;51092;50.874;7.024;2023-05-19T05:20:28;11.18;;;7.90;;
30888;SDS011;51092;50.874;7.024;2023-05-19T05:21:31;11.85;;;8.18;;
30888;SDS011;51092;50.874;7.024;2023-05-19T05:22:34;13.73;;;8.10;;
30888;SDS011;51092;50.874;7.024;2023-05-19T05:23:36;11.45;;;8.13;;
30888;SDS011;51092;50.874;7.024;2023-05-19T05:24:41;17.85;;;8.30;;
30888;SDS011;51092;50.874;7.024;2023-05-19T05:25:44;11.82;;;7.60;;
30888;SDS011;51092;50.874;7.024;2023-05-19T05:26:46;14.43;;;7.80;;
30888;SDS011;51092;50.874;7.024;2023-05-19T05:27:49;11.07;;;8.43;;
30888;SDS011;51092;50.874;7.024;2023-05-19T05:28:51;10.88;;;7.22;;
30888;SDS011;51092;50.874;7.024;2023-05-19T05:29:53;11.73;;;7.82;;
30888;SDS011;51092;50.874;7.024;2023-05-19T05:30:55;12.77;;;7.80;;
30888;SDS011;51092;50.874;7.024;2023-05-19T05:31:57;10.70;;;7.97;;
30888;SDS011;51092;50.874;7.024;2023-05-19T05:32:59;12.15;;;7.18;;
30888;SDS011;51092;50.874;7.024;2023-05-19T05:34:02;8.27;;;6.95;;
30888;SDS011;51092;50.874;7.024;2023-05-19T05:35:04;12.65;;;7.72;;
30888;SDS011;51092;50.874;7.024;2023-05-19T05:36:08;12.85;;;7.45;;
30888;SDS011;51092;50.874;7.024;2023-05-19T05:37:09;12.35;;;8.15;;
30888;SDS011;51092;50.874;7.024;2023-05-19T05:38:12;12.02;;;7.30;;
30888;SDS011;51092;50.874;7.024;2023-05-19T05:39:15;10.52;;;7.93;;
30888;SDS011;51092;50.874;7.024;2023-05-19T05:40:18;13.07;;;7.75;;
30888;SDS011;51092;50.874;7.024;2023-05-19T05:41:21;9.70;;;7.38;;
30888;SDS011;51092;50.874;7.024;2023-05-19T05:42:22;15.07;;;8.50;;
30888;SDS011;51092;50.874;7.024;2023-05-19T05:43:25;15.60;;;7.65;;
30888;SDS011;51092;50.874;7.024;2023-05-19T05:44:26;11.07;;;7.75;;
30888;SDS011;51092;50.874;7.024;2023-05-19T05:45:29;20.50;;;9.13;;
30888;SDS011;51092;50.874;7.024;2023-05-19T05:46:33;9.88;;;7.45;;
30888;SDS011;51092;50.874;7.024;2023-05-19T05:47:36;11.35;;;7.75;;
30888;SDS011;51092;50.874;7.024;2023-05-19T05:48:38;11.77;;;7.70;;
30888;SDS011;51092;50.874;7.024;2023-05-19T05:49:42;13.73;;;7.90;;
30888;SDS011;51092;50.874;7.024;2023-05-19T05:50:43;10.50;;;6.55;;
30888;SDS011;51092;50.874;7.024;2023-05-19T05:51:47;11.90;;;7.32;;
30888;SDS011;51092;50.874;7.024;2023-05-19T05:52:49;12.07;;;7.65;;
30888;SDS011;51092;50.874;7.024;2023-05-19T05:53:53;13.90;;;7.50;;
30888;SDS011;51092;50.874;7.024;2023-05-19T05:54:56;10.75;;;7.22;;
30888;SDS011;51092;50.874;7.024;2023-05-19T05:56:01;12.80;;;7.63;;
30888;SDS011;51092;50.874;7.024;2023-05-19T05:57:03;14.80;;;6.85;;
30888;SDS011;51092;50.874;7.024;2023-05-19T05:58:06;12.68;;;7.80;;
30888;SDS011;51092;50.874;7.024;2023-05-19T05:59:10;9.85;;;7.10;;
30888;SDS011;51092;50.874;7.024;2023-05-19T06:00:13;10.32;;;6.75;;
30888;SDS011;51092;50.874;7.024;2023-05-19T06:01:15;12.55;;;6.78;;
30888;SDS011;51092;50.874;7.024;2023-05-19T06:02:17;13.38;;;7.65;;
30888;SDS011;51092;50.874;7.024;2023-05-19T06:03:21;10.05;;;5.70;;
30888;SDS011;51092;50.874;7.024;2023-05-19T06:04:23;11.77;;;6.70;;
30888;SDS011;51092;50.874;7.024;2023-05-19T06:05:25;10.68;;;6.38;;
30888;SDS011;51092;50.874;7.024;2023-05-19T06:06:28;12.90;;;5.97;;
30888;SDS011;51092;50.874;7.024;2023-05-19T06:07:30;12.27;;;7.18;;
30888;SDS011;51092;50.874;7.024;2023-05-19T06:08:32;7.32;;;6.35;;
30888;SDS011;51092;50.874;7.024;2023-05-19T06:09:33;9.88;;;6.53;;
30888;SDS011;51092;50.874;7.024;2023-05-19T06:10:35;9.27;;;5.68;;
30888;SDS011;51092;50.874;7.024;2023-05-19T06:11:39;9.27;;;5.80;;
30888;SDS011;51092;50.874;7.024;2023-05-19T06:12:41;8.50;;;5.10;;
30888;SDS011;51092;50.874;7.024;2023-05-19T06:13:43;13.00;;;5.57;;
30888;SDS011;51092;50.874;7.024;2023-05-19T06:14:46;12.10;;;5.80;;
30888;SDS011;51092;50.874;7.024;2023-05-19T06:15:47;10.05;;;5.72;;
30888;SDS011;51092;50.874;7.024;2023-05-19T06:16:49;9.18;;;5.43;;
30888;SDS011;51092;50.874;7.024;2023-05-19T06:17:50;8.95;;;4.82;;
30888;SDS011;51092;50.874;7.024;2023-05-19T06:18:53;12.10;;;4.57;;